Szekesfehervar, Hungary
Current Conditions -  °F | °C
As of 5:00 AM on Saturday 20 Dec 2014 (Local Time) from LHBP Reporting Station
Few Clouds Few Clouds  
Wind Chill: 50°   Ceiling: Unl
Heat Index: 50°   Visibility: 6mi
Dew Point: 45°   Wind: 26mph
Humidity: 82%   Direction: 300°WNW
Pressure: 29.97"   Gusts: NA
Location:  47.2°N, 18.41°E
Report Text: LHBP 200300Z 30023KT 9999 FEW024 10/07 Q1015 NOSIG
Loading
Personal Weather Stations






























Interactive Weather Map New forecast layout! Learn more

10-Day Weather Forecast

Advertisements
Track Severe Weather on mobile